sensor_id;sensor_type;location;lat;lon;timestamp;P1;durP1;ratioP1;P2;durP2;ratioP2
76202;SDS011;64985;46.364;17.008;2023-03-01T00:02:50;31.92;;;17.85;;
76202;SDS011;64985;46.364;17.008;2023-03-01T00:05:53;36.58;;;19.65;;
76202;SDS011;64985;46.364;17.008;2023-03-01T00:08:55;36.05;;;19.02;;
76202;SDS011;64985;46.364;17.008;2023-03-01T00:11:57;32.90;;;18.58;;
76202;SDS011;64985;46.364;17.008;2023-03-01T00:14:59;35.85;;;18.92;;
76202;SDS011;64985;46.364;17.008;2023-03-01T00:18:01;36.13;;;20.38;;
76202;SDS011;64985;46.364;17.008;2023-03-01T00:21:04;38.88;;;20.02;;
76202;SDS011;64985;46.364;17.008;2023-03-01T00:24:06;36.38;;;19.67;;
76202;SDS011;64985;46.364;17.008;2023-03-01T00:27:09;34.90;;;19.92;;
76202;SDS011;64985;46.364;17.008;2023-03-01T00:30:12;32.47;;;19.23;;
76202;SDS011;64985;46.364;17.008;2023-03-01T00:33:14;33.42;;;19.08;;
76202;SDS011;64985;46.364;17.008;2023-03-01T00:36:16;31.30;;;18.67;;
76202;SDS011;64985;46.364;17.008;2023-03-01T00:39:19;33.40;;;19.40;;
76202;SDS011;64985;46.364;17.008;2023-03-01T00:42:21;32.35;;;19.00;;
76202;SDS011;64985;46.364;17.008;2023-03-01T00:45:24;36.38;;;20.08;;
76202;SDS011;64985;46.364;17.008;2023-03-01T00:48:26;35.40;;;19.85;;
76202;SDS011;64985;46.364;17.008;2023-03-01T00:51:28;36.10;;;19.38;;
76202;SDS011;64985;46.364;17.008;2023-03-01T00:54:31;35.45;;;19.58;;
76202;SDS011;64985;46.364;17.008;2023-03-01T00:57:33;36.42;;;19.95;;
76202;SDS011;64985;46.364;17.008;2023-03-01T01:00:36;37.72;;;19.75;;
76202;SDS011;64985;46.364;17.008;2023-03-01T01:03:38;38.08;;;19.65;;
76202;SDS011;64985;46.364;17.008;2023-03-01T01:06:42;35.50;;;18.95;;
76202;SDS011;64985;46.364;17.008;2023-03-01T01:09:46;35.13;;;18.90;;
76202;SDS011;64985;46.364;17.008;2023-03-01T01:12:48;34.25;;;18.33;;
76202;SDS011;64985;46.364;17.008;2023-03-01T01:15:50;35.97;;;18.92;;
76202;SDS011;64985;46.364;17.008;2023-03-01T01:18:52;35.05;;;18.73;;
76202;SDS011;64985;46.364;17.008;2023-03-01T01:21:55;34.65;;;18.67;;
76202;SDS011;64985;46.364;17.008;2023-03-01T01:24:57;37.38;;;19.17;;
76202;SDS011;64985;46.364;17.008;2023-03-01T01:27:59;36.33;;;18.33;;
76202;SDS011;64985;46.364;17.008;2023-03-01T01:31:02;37.50;;;19.58;;
76202;SDS011;64985;46.364;17.008;2023-03-01T01:34:06;37.28;;;19.95;;
76202;SDS011;64985;46.364;17.008;2023-03-01T01:37:09;35.28;;;18.77;;
76202;SDS011;64985;46.364;17.008;2023-03-01T01:40:11;37.75;;;19.23;;
76202;SDS011;64985;46.364;17.008;2023-03-01T01:43:48;35.42;;;19.08;;
76202;SDS011;64985;46.364;17.008;2023-03-01T01:46:57;36.17;;;19.33;;
76202;SDS011;64985;46.364;17.008;2023-03-01T01:50:03;34.65;;;19.15;;
76202;SDS011;64985;46.364;17.008;2023-03-01T01:53:06;34.58;;;19.13;;
76202;SDS011;64985;46.364;17.008;2023-03-01T01:56:14;35.42;;;19.27;;
76202;SDS011;64985;46.364;17.008;2023-03-01T01:59:17;34.97;;;18.98;;
76202;SDS011;64985;46.364;17.008;2023-03-01T02:02:19;34.35;;;19.30;;
76202;SDS011;64985;46.364;17.008;2023-03-01T02:08:33;34.25;;;18.52;;
76202;SDS011;64985;46.364;17.008;2023-03-01T02:11:38;34.55;;;17.45;;
76202;SDS011;64985;46.364;17.008;2023-03-01T02:14:40;36.40;;;18.05;;
76202;SDS011;64985;46.364;17.008;2023-03-01T02:17:42;36.17;;;18.50;;
76202;SDS011;64985;46.364;17.008;2023-03-01T02:24:19;34.90;;;18.02;;
76202;SDS011;64985;46.364;17.008;2023-03-01T02:31:18;35.63;;;18.33;;
76202;SDS011;64985;46.364;17.008;2023-03-01T02:34:40;36.08;;;18.85;;
76202;SDS011;64985;46.364;17.008;2023-03-01T02:37:43;36.90;;;19.13;;
76202;SDS011;64985;46.364;17.008;2023-03-01T02:40:48;35.00;;;18.33;;
76202;SDS011;64985;46.364;17.008;2023-03-01T02:43:52;39.42;;;19.27;;
76202;SDS011;64985;46.364;17.008;2023-03-01T02:46:55;35.08;;;18.90;;
76202;SDS011;64985;46.364;17.008;2023-03-01T02:49:59;35.35;;;18.98;;
76202;SDS011;64985;46.364;17.008;2023-03-01T02:53:11;37.25;;;19.10;;
76202;SDS011;64985;46.364;17.008;2023-03-01T02:56:32;38.42;;;19.85;;
76202;SDS011;64985;46.364;17.008;2023-03-01T02:59:36;40.67;;;20.50;;
76202;SDS011;64985;46.364;17.008;2023-03-01T03:02:41;36.92;;;20.20;;
76202;SDS011;64985;46.364;17.008;2023-03-01T03:05:43;38.17;;;19.75;;
76202;SDS011;64985;46.364;17.008;2023-03-01T03:08:45;35.95;;;19.10;;
76202;SDS011;64985;46.364;17.008;2023-03-01T03:11:48;35.38;;;18.63;;
76202;SDS011;64985;46.364;17.008;2023-03-01T03:14:50;39.20;;;19.98;;
76202;SDS011;64985;46.364;17.008;2023-03-01T03:17:52;38.40;;;19.77;;
76202;SDS011;64985;46.364;17.008;2023-03-01T03:20:56;39.05;;;20.25;;
76202;SDS011;64985;46.364;17.008;2023-03-01T03:23:58;43.47;;;20.17;;
76202;SDS011;64985;46.364;17.008;2023-03-01T03:27:01;40.53;;;20.00;;
76202;SDS011;64985;46.364;17.008;2023-03-01T03:30:04;35.25;;;18.15;;
76202;SDS011;64985;46.364;17.008;2023-03-01T03:33:13;39.53;;;19.70;;
76202;SDS011;64985;46.364;17.008;2023-03-01T03:36:21;38.10;;;19.63;;
76202;SDS011;64985;46.364;17.008;2023-03-01T03:39:26;40.05;;;19.67;;
76202;SDS011;64985;46.364;17.008;2023-03-01T03:42:28;37.95;;;19.00;;
76202;SDS011;64985;46.364;17.008;2023-03-01T03:45:30;38.65;;;20.23;;
76202;SDS011;64985;46.364;17.008;2023-03-01T03:48:39;44.17;;;21.40;;
76202;SDS011;64985;46.364;17.008;2023-03-01T03:51:45;39.42;;;20.65;;
76202;SDS011;64985;46.364;17.008;2023-03-01T03:54:48;43.20;;;20.55;;
76202;SDS011;64985;46.364;17.008;2023-03-01T03:57:50;40.40;;;19.90;;
76202;SDS011;64985;46.364;17.008;2023-03-01T04:00:56;43.83;;;20.70;;
76202;SDS011;64985;46.364;17.008;2023-03-01T04:03:59;39.85;;;20.30;;
76202;SDS011;64985;46.364;17.008;2023-03-01T04:07:05;45.78;;;20.95;;
76202;SDS011;64985;46.364;17.008;2023-03-01T04:10:12;45.63;;;21.70;;
76202;SDS011;64985;46.364;17.008;2023-03-01T04:13:20;44.50;;;20.58;;
76202;SDS011;64985;46.364;17.008;2023-03-01T04:16:24;45.10;;;20.80;;
76202;SDS011;64985;46.364;17.008;2023-03-01T04:19:26;46.70;;;21.15;;
76202;SDS011;64985;46.364;17.008;2023-03-01T04:22:29;47.28;;;21.55;;
76202;SDS011;64985;46.364;17.008;2023-03-01T04:25:33;51.40;;;21.58;;
76202;SDS011;64985;46.364;17.008;2023-03-01T04:28:36;47.53;;;21.63;;
76202;SDS011;64985;46.364;17.008;2023-03-01T04:31:41;47.80;;;20.92;;
76202;SDS011;64985;46.364;17.008;2023-03-01T04:34:44;44.28;;;19.95;;
76202;SDS011;64985;46.364;17.008;2023-03-01T04:37:46;44.38;;;20.75;;
76202;SDS011;64985;46.364;17.008;2023-03-01T04:40:51;42.28;;;20.30;;
76202;SDS011;64985;46.364;17.008;2023-03-01T04:43:53;44.90;;;20.40;;
76202;SDS011;64985;46.364;17.008;2023-03-01T04:46:55;47.75;;;21.42;;
76202;SDS011;64985;46.364;17.008;2023-03-01T04:49:57;45.10;;;20.48;;
76202;SDS011;64985;46.364;17.008;2023-03-01T04:52:59;43.75;;;20.33;;
76202;SDS011;64985;46.364;17.008;2023-03-01T04:56:02;49.25;;;21.08;;
76202;SDS011;64985;46.364;17.008;2023-03-01T04:59:04;49.13;;;20.60;;
76202;SDS011;64985;46.364;17.008;2023-03-01T05:02:07;54.25;;;21.02;;
76202;SDS011;64985;46.364;17.008;2023-03-01T05:05:09;44.92;;;19.88;;
76202;SDS011;64985;46.364;17.008;2023-03-01T05:08:11;44.20;;;20.50;;
76202;SDS011;64985;46.364;17.008;2023-03-01T05:11:21;47.97;;;21.88;;
76202;SDS011;64985;46.364;17.008;2023-03-01T05:14:23;51.92;;;20.48;;
76202;SDS011;64985;46.364;17.008;2023-03-01T05:17:25;46.38;;;20.50;;
76202;SDS011;64985;46.364;17.008;2023-03-01T05:20:30;49.88;;;20.23;;
76202;SDS011;64985;46.364;17.008;2023-03-01T05:23:32;48.13;;;20.17;;
76202;SDS011;64985;46.364;17.008;2023-03-01T05:26:34;46.80;;;20.35;;
76202;SDS011;64985;46.364;17.008;2023-03-01T05:29:42;51.40;;;20.83;;
76202;SDS011;64985;46.364;17.008;2023-03-01T05:32:45;48.25;;;20.33;;
76202;SDS011;64985;46.364;17.008;2023-03-01T05:35:48;47.72;;;19.83;;
76202;SDS011;64985;46.364;17.008;2023-03-01T05:38:52;47.42;;;21.23;;
76202;SDS011;64985;46.364;17.008;2023-03-01T05:41:55;49.92;;;20.45;;
76202;SDS011;64985;46.364;17.008;2023-03-01T05:44:58;47.10;;;20.10;;
76202;SDS011;64985;46.364;17.008;2023-03-01T05:48:00;51.75;;;21.75;;
76202;SDS011;64985;46.364;17.008;2023-03-01T05:51:03;49.40;;;20.98;;
76202;SDS011;64985;46.364;17.008;2023-03-01T05:54:05;52.15;;;21.23;;
76202;SDS011;64985;46.364;17.008;2023-03-01T05:57:07;46.42;;;20.30;;
76202;SDS011;64985;46.364;17.008;2023-03-01T06:00:10;54.65;;;21.48;;
76202;SDS011;64985;46.364;17.008;2023-03-01T06:03:15;51.67;;;20.70;;
76202;SDS011;64985;46.364;17.008;2023-03-01T06:06:18;48.25;;;19.92;;
76202;SDS011;64985;46.364;17.008;2023-03-01T06:09:20;50.42;;;20.80;;
76202;SDS011;64985;46.364;17.008;2023-03-01T06:12:23;53.75;;;21.48;;
76202;SDS011;64985;46.364;17.008;2023-03-01T06:15:25;51.13;;;21.58;;
76202;SDS011;64985;46.364;17.008;2023-03-01T06:18:27;52.75;;;20.92;;
76202;SDS011;64985;46.364;17.008;2023-03-01T06:21:29;51.28;;;20.45;;
76202;SDS011;64985;46.364;17.008;2023-03-01T06:24:32;52.42;;;21.13;;
76202;SDS011;64985;46.364;17.008;2023-03-01T06:27:35;49.45;;;20.98;;
76202;SDS011;64985;46.364;17.008;2023-03-01T06:30:38;49.40;;;20.48;;
76202;SDS011;64985;46.364;17.008;2023-03-01T06:33:40;51.00;;;20.98;;
76202;SDS011;64985;46.364;17.008;2023-03-01T06:36:42;49.78;;;21.85;;
76202;SDS011;64985;46.364;17.008;2023-03-01T06:39:44;57.58;;;21.77;;
76202;SDS011;64985;46.364;17.008;2023-03-01T06:42:50;49.92;;;20.17;;
76202;SDS011;64985;46.364;17.008;2023-03-01T06:45:52;49.90;;;19.80;;
76202;SDS011;64985;46.364;17.008;2023-03-01T06:48:54;51.40;;;21.00;;
76202;SDS011;64985;46.364;17.008;2023-03-01T06:51:56;54.72;;;20.98;;
76202;SDS011;64985;46.364;17.008;2023-03-01T06:54:59;59.00;;;21.83;;
76202;SDS011;64985;46.364;17.008;2023-03-01T06:58:02;51.60;;;21.17;;
76202;SDS011;64985;46.364;17.008;2023-03-01T07:01:05;54.67;;;21.67;;
76202;SDS011;64985;46.364;17.008;2023-03-01T07:04:09;48.53;;;21.13;;
76202;SDS011;64985;46.364;17.008;2023-03-01T07:07:12;56.42;;;22.08;;
76202;SDS011;64985;46.364;17.008;2023-03-01T07:10:15;54.30;;;22.60;;
76202;SDS011;64985;46.364;17.008;2023-03-01T07:13:19;50.33;;;21.65;;
76202;SDS011;64985;46.364;17.008;2023-03-01T07:16:22;52.08;;;21.27;;
76202;SDS011;64985;46.364;17.008;2023-03-01T07:19:24;52.55;;;22.05;;
76202;SDS011;64985;46.364;17.008;2023-03-01T07:22:26;46.88;;;20.30;;
76202;SDS011;64985;46.364;17.008;2023-03-01T07:25:29;50.03;;;21.38;;
76202;SDS011;64985;46.364;17.008;2023-03-01T07:28:31;51.63;;;22.15;;
76202;SDS011;64985;46.364;17.008;2023-03-01T07:31:37;53.20;;;21.80;;
76202;SDS011;64985;46.364;17.008;2023-03-01T07:34:39;56.63;;;23.33;;
76202;SDS011;64985;46.364;17.008;2023-03-01T07:37:41;54.78;;;22.48;;
76202;SDS011;64985;46.364;17.008;2023-03-01T07:40:46;52.72;;;21.88;;
76202;SDS011;64985;46.364;17.008;2023-03-01T07:43:48;51.38;;;21.77;;
76202;SDS011;64985;46.364;17.008;2023-03-01T07:46:50;59.83;;;22.75;;
76202;SDS011;64985;46.364;17.008;2023-03-01T07:49:58;59.22;;;24.00;;
76202;SDS011;64985;46.364;17.008;2023-03-01T07:53:00;58.90;;;24.33;;
76202;SDS011;64985;46.364;17.008;2023-03-01T07:56:04;60.00;;;23.27;;
76202;SDS011;64985;46.364;17.008;2023-03-01T07:59:09;61.03;;;24.98;;
76202;SDS011;64985;46.364;17.008;2023-03-01T08:02:11;61.95;;;24.50;;
76202;SDS011;64985;46.364;17.008;2023-03-01T08:05:13;60.22;;;23.73;;
76202;SDS011;64985;46.364;17.008;2023-03-01T08:08:16;56.72;;;24.67;;
76202;SDS011;64985;46.364;17.008;2023-03-01T08:11:19;58.40;;;25.02;;
76202;SDS011;64985;46.364;17.008;2023-03-01T08:14:21;57.88;;;24.30;;
76202;SDS011;64985;46.364;17.008;2023-03-01T08:17:23;64.78;;;26.67;;
76202;SDS011;64985;46.364;17.008;2023-03-01T08:20:26;59.80;;;25.08;;
76202;SDS011;64985;46.364;17.008;2023-03-01T08:23:28;63.38;;;26.20;;
76202;SDS011;64985;46.364;17.008;2023-03-01T08:26:31;62.13;;;26.65;;
76202;SDS011;64985;46.364;17.008;2023-03-01T08:29:34;60.78;;;25.67;;
76202;SDS011;64985;46.364;17.008;2023-03-01T08:32:37;60.70;;;25.80;;
76202;SDS011;64985;46.364;17.008;2023-03-01T08:35:40;58.55;;;25.40;;
76202;SDS011;64985;46.364;17.008;2023-03-01T08:38:43;61.13;;;25.98;;
76202;SDS011;64985;46.364;17.008;2023-03-01T08:41:46;57.15;;;23.75;;
76202;SDS011;64985;46.364;17.008;2023-03-01T08:44:48;54.33;;;23.13;;
76202;SDS011;64985;46.364;17.008;2023-03-01T08:47:53;51.50;;;22.90;;
76202;SDS011;64985;46.364;17.008;2023-03-01T08:50:56;49.58;;;22.08;;
76202;SDS011;64985;46.364;17.008;2023-03-01T08:54:14;46.95;;;21.45;;
76202;SDS011;64985;46.364;17.008;2023-03-01T08:57:19;46.03;;;21.83;;
76202;SDS011;64985;46.364;17.008;2023-03-01T09:00:22;49.13;;;22.48;;
76202;SDS011;64985;46.364;17.008;2023-03-01T09:03:25;49.13;;;21.50;;
76202;SDS011;64985;46.364;17.008;2023-03-01T09:06:29;44.22;;;19.95;;
76202;SDS011;64985;46.364;17.008;2023-03-01T09:09:34;43.20;;;20.35;;
76202;SDS011;64985;46.364;17.008;2023-03-01T09:12:37;39.78;;;19.80;;
76202;SDS011;64985;46.364;17.008;2023-03-01T09:15:39;42.42;;;19.77;;
76202;SDS011;64985;46.364;17.008;2023-03-01T09:18:41;43.28;;;19.52;;
76202;SDS011;64985;46.364;17.008;2023-03-01T09:21:44;39.40;;;19.08;;
76202;SDS011;64985;46.364;17.008;2023-03-01T09:24:53;41.35;;;19.52;;
76202;SDS011;64985;46.364;17.008;2023-03-01T09:27:55;40.65;;;19.73;;
76202;SDS011;64985;46.364;17.008;2023-03-01T09:30:59;43.75;;;19.70;;
76202;SDS011;64985;46.364;17.008;2023-03-01T09:34:02;43.17;;;20.08;;
76202;SDS011;64985;46.364;17.008;2023-03-01T09:37:04;43.30;;;19.98;;
76202;SDS011;64985;46.364;17.008;2023-03-01T09:40:07;41.88;;;19.75;;
76202;SDS011;64985;46.364;17.008;2023-03-01T09:46:27;58.30;;;24.77;;
76202;SDS011;64985;46.364;17.008;2023-03-01T09:49:31;43.35;;;21.35;;
76202;SDS011;64985;46.364;17.008;2023-03-01T09:52:40;44.30;;;21.45;;
76202;SDS011;64985;46.364;17.008;2023-03-01T10:09:10;50.17;;;23.00;;
76202;SDS011;64985;46.364;17.008;2023-03-01T10:12:17;49.20;;;22.80;;
76202;SDS011;64985;46.364;17.008;2023-03-01T10:15:32;48.13;;;21.20;;
76202;SDS011;64985;46.364;17.008;2023-03-01T10:18:40;45.17;;;21.08;;
76202;SDS011;64985;46.364;17.008;2023-03-01T10:21:45;44.47;;;21.08;;
76202;SDS011;64985;46.364;17.008;2023-03-01T10:24:48;47.30;;;23.30;;
76202;SDS011;64985;46.364;17.008;2023-03-01T10:27:52;46.55;;;22.88;;
76202;SDS011;64985;46.364;17.008;2023-03-01T10:31:01;40.13;;;20.80;;
76202;SDS011;64985;46.364;17.008;2023-03-01T10:34:12;43.78;;;20.58;;
76202;SDS011;64985;46.364;17.008;2023-03-01T10:37:18;39.20;;;20.35;;
76202;SDS011;64985;46.364;17.008;2023-03-01T10:40:26;43.50;;;20.70;;
76202;SDS011;64985;46.364;17.008;2023-03-01T10:43:40;41.67;;;20.40;;
76202;SDS011;64985;46.364;17.008;2023-03-01T10:46:45;41.30;;;20.17;;
76202;SDS011;64985;46.364;17.008;2023-03-01T10:50:04;41.20;;;20.38;;
76202;SDS011;64985;46.364;17.008;2023-03-01T10:56:26;47.97;;;22.88;;
76202;SDS011;64985;46.364;17.008;2023-03-01T10:59:29;43.10;;;20.73;;
76202;SDS011;64985;46.364;17.008;2023-03-01T11:02:39;46.10;;;21.38;;
76202;SDS011;64985;46.364;17.008;2023-03-01T11:09:15;39.97;;;19.45;;
76202;SDS011;64985;46.364;17.008;2023-03-01T11:12:25;40.58;;;21.08;;
76202;SDS011;64985;46.364;17.008;2023-03-01T11:15:28;40.75;;;20.35;;
76202;SDS011;64985;46.364;17.008;2023-03-01T11:18:30;43.00;;;21.73;;
76202;SDS011;64985;46.364;17.008;2023-03-01T11:25:15;44.97;;;22.83;;
76202;SDS011;64985;46.364;17.008;2023-03-01T11:28:24;46.08;;;21.60;;
76202;SDS011;64985;46.364;17.008;2023-03-01T11:31:29;46.45;;;23.52;;
76202;SDS011;64985;46.364;17.008;2023-03-01T11:34:38;44.45;;;21.92;;
76202;SDS011;64985;46.364;17.008;2023-03-01T11:41:23;45.85;;;23.15;;
76202;SDS011;64985;46.364;17.008;2023-03-01T11:44:29;51.40;;;24.48;;
76202;SDS011;64985;46.364;17.008;2023-03-01T11:51:11;51.08;;;25.52;;
76202;SDS011;64985;46.364;17.008;2023-03-01T12:01:09;53.03;;;25.83;;
76202;SDS011;64985;46.364;17.008;2023-03-01T12:04:32;54.55;;;25.75;;
76202;SDS011;64985;46.364;17.008;2023-03-01T12:08:03;52.00;;;24.77;;
76202;SDS011;64985;46.364;17.008;2023-03-01T12:11:21;54.15;;;25.33;;
76202;SDS011;64985;46.364;17.008;2023-03-01T12:29:05;62.60;;;27.20;;
76202;SDS011;64985;46.364;17.008;2023-03-01T12:39:35;52.58;;;26.33;;
76202;SDS011;64985;46.364;17.008;2023-03-01T12:49:39;58.40;;;27.27;;
76202;SDS011;64985;46.364;17.008;2023-03-01T12:52:52;60.35;;;28.33;;
76202;SDS011;64985;46.364;17.008;2023-03-01T13:02:30;64.57;;;27.77;;
76202;SDS011;64985;46.364;17.008;2023-03-01T13:09:25;62.75;;;28.58;;
76202;SDS011;64985;46.364;17.008;2023-03-01T13:12:53;61.92;;;27.92;;
76202;SDS011;64985;46.364;17.008;2023-03-01T13:16:19;62.65;;;29.35;;
76202;SDS011;64985;46.364;17.008;2023-03-01T13:19:31;63.25;;;29.25;;
76202;SDS011;64985;46.364;17.008;2023-03-01T13:22:34;67.72;;;29.65;;
76202;SDS011;64985;46.364;17.008;2023-03-01T13:29:25;59.67;;;28.40;;
76202;SDS011;64985;46.364;17.008;2023-03-01T13:32:35;76.35;;;33.83;;
76202;SDS011;64985;46.364;17.008;2023-03-01T13:35:45;82.43;;;37.80;;
76202;SDS011;64985;46.364;17.008;2023-03-01T13:41:55;73.35;;;33.80;;
76202;SDS011;64985;46.364;17.008;2023-03-01T13:44:59;74.90;;;33.45;;
76202;SDS011;64985;46.364;17.008;2023-03-01T13:48:03;64.20;;;31.20;;
76202;SDS011;64985;46.364;17.008;2023-03-01T13:51:29;63.60;;;29.42;;
76202;SDS011;64985;46.364;17.008;2023-03-01T13:54:32;59.80;;;30.38;;
76202;SDS011;64985;46.364;17.008;2023-03-01T13:57:36;71.97;;;33.67;;
76202;SDS011;64985;46.364;17.008;2023-03-01T14:00:41;68.95;;;30.80;;
76202;SDS011;64985;46.364;17.008;2023-03-01T14:03:44;73.88;;;33.83;;
76202;SDS011;64985;46.364;17.008;2023-03-01T14:06:46;64.30;;;31.17;;
76202;SDS011;64985;46.364;17.008;2023-03-01T14:09:49;56.90;;;28.23;;
76202;SDS011;64985;46.364;17.008;2023-03-01T14:12:55;61.95;;;31.13;;
76202;SDS011;64985;46.364;17.008;2023-03-01T14:19:37;61.03;;;30.98;;
76202;SDS011;64985;46.364;17.008;2023-03-01T14:22:40;59.80;;;30.10;;
76202;SDS011;64985;46.364;17.008;2023-03-01T14:25:47;63.78;;;29.58;;
76202;SDS011;64985;46.364;17.008;2023-03-01T14:28:51;66.72;;;30.70;;
76202;SDS011;64985;46.364;17.008;2023-03-01T14:31:54;55.03;;;28.70;;
76202;SDS011;64985;46.364;17.008;2023-03-01T14:34:56;59.20;;;29.85;;
76202;SDS011;64985;46.364;17.008;2023-03-01T14:38:00;60.17;;;29.45;;
76202;SDS011;64985;46.364;17.008;2023-03-01T14:41:08;63.00;;;31.50;;
76202;SDS011;64985;46.364;17.008;2023-03-01T14:44:21;59.15;;;30.02;;
76202;SDS011;64985;46.364;17.008;2023-03-01T14:47:30;60.70;;;29.60;;
76202;SDS011;64985;46.364;17.008;2023-03-01T14:50:35;60.38;;;29.33;;
76202;SDS011;64985;46.364;17.008;2023-03-01T14:53:42;56.25;;;28.42;;
76202;SDS011;64985;46.364;17.008;2023-03-01T14:56:52;58.25;;;27.92;;
76202;SDS011;64985;46.364;17.008;2023-03-01T14:59:58;59.85;;;29.88;;
76202;SDS011;64985;46.364;17.008;2023-03-01T15:03:08;56.45;;;28.95;;
76202;SDS011;64985;46.364;17.008;2023-03-01T15:06:17;54.03;;;27.80;;
76202;SDS011;64985;46.364;17.008;2023-03-01T15:09:22;54.05;;;26.75;;
76202;SDS011;64985;46.364;17.008;2023-03-01T15:15:36;56.53;;;27.77;;
76202;SDS011;64985;46.364;17.008;2023-03-01T15:18:44;57.05;;;27.98;;
76202;SDS011;64985;46.364;17.008;2023-03-01T15:21:51;55.92;;;27.85;;
76202;SDS011;64985;46.364;17.008;2023-03-01T15:24:53;57.30;;;29.77;;
76202;SDS011;64985;46.364;17.008;2023-03-01T15:27:56;57.38;;;29.67;;
76202;SDS011;64985;46.364;17.008;2023-03-01T15:31:02;59.55;;;29.75;;
76202;SDS011;64985;46.364;17.008;2023-03-01T15:34:27;61.10;;;30.25;;
76202;SDS011;64985;46.364;17.008;2023-03-01T15:37:47;60.65;;;30.48;;
76202;SDS011;64985;46.364;17.008;2023-03-01T15:40:50;64.57;;;31.27;;
76202;SDS011;64985;46.364;17.008;2023-03-01T15:43:52;62.10;;;30.63;;
76202;SDS011;64985;46.364;17.008;2023-03-01T15:46:57;71.78;;;31.55;;
76202;SDS011;64985;46.364;17.008;2023-03-01T15:50:00;65.72;;;31.15;;
76202;SDS011;64985;46.364;17.008;2023-03-01T15:53:06;65.90;;;31.52;;
76202;SDS011;64985;46.364;17.008;2023-03-01T15:56:13;66.15;;;32.17;;
76202;SDS011;64985;46.364;17.008;2023-03-01T15:59:16;70.93;;;33.03;;
76202;SDS011;64985;46.364;17.008;2023-03-01T16:02:19;73.43;;;33.13;;
76202;SDS011;64985;46.364;17.008;2023-03-01T16:05:30;73.25;;;34.45;;
76202;SDS011;64985;46.364;17.008;2023-03-01T16:08:34;70.30;;;33.40;;
76202;SDS011;64985;46.364;17.008;2023-03-01T16:11:36;90.70;;;40.22;;
76202;SDS011;64985;46.364;17.008;2023-03-01T16:14:39;112.95;;;45.78;;
76202;SDS011;64985;46.364;17.008;2023-03-01T16:17:41;113.53;;;46.92;;
76202;SDS011;64985;46.364;17.008;2023-03-01T16:20:46;105.05;;;47.30;;
76202;SDS011;64985;46.364;17.008;2023-03-01T16:23:49;151.10;;;65.10;;
76202;SDS011;64985;46.364;17.008;2023-03-01T16:26:52;143.50;;;64.28;;
76202;SDS011;64985;46.364;17.008;2023-03-01T16:29:54;112.38;;;49.40;;
76202;SDS011;64985;46.364;17.008;2023-03-01T16:32:57;87.32;;;41.63;;
76202;SDS011;64985;46.364;17.008;2023-03-01T16:36:00;83.35;;;37.85;;
76202;SDS011;64985;46.364;17.008;2023-03-01T16:39:08;77.27;;;37.47;;
76202;SDS011;64985;46.364;17.008;2023-03-01T16:42:11;80.95;;;35.97;;
76202;SDS011;64985;46.364;17.008;2023-03-01T16:45:13;73.80;;;34.85;;
76202;SDS011;64985;46.364;17.008;2023-03-01T16:48:25;78.28;;;36.60;;
76202;SDS011;64985;46.364;17.008;2023-03-01T16:51:29;77.68;;;35.70;;
76202;SDS011;64985;46.364;17.008;2023-03-01T16:54:32;75.40;;;35.13;;
76202;SDS011;64985;46.364;17.008;2023-03-01T16:57:36;69.97;;;34.53;;
76202;SDS011;64985;46.364;17.008;2023-03-01T17:00:42;74.28;;;35.22;;
76202;SDS011;64985;46.364;17.008;2023-03-01T17:03:45;80.07;;;35.05;;
76202;SDS011;64985;46.364;17.008;2023-03-01T17:06:48;77.25;;;34.30;;
76202;SDS011;64985;46.364;17.008;2023-03-01T17:09:51;70.03;;;33.30;;
76202;SDS011;64985;46.364;17.008;2023-03-01T17:12:53;80.60;;;36.55;;
76202;SDS011;64985;46.364;17.008;2023-03-01T17:15:56;83.90;;;37.25;;
76202;SDS011;64985;46.364;17.008;2023-03-01T17:18:58;88.53;;;39.63;;
76202;SDS011;64985;46.364;17.008;2023-03-01T17:22:03;91.18;;;41.33;;
76202;SDS011;64985;46.364;17.008;2023-03-01T17:25:06;82.88;;;36.88;;
76202;SDS011;64985;46.364;17.008;2023-03-01T17:28:11;76.05;;;37.28;;
76202;SDS011;64985;46.364;17.008;2023-03-01T17:31:22;81.20;;;35.72;;
76202;SDS011;64985;46.364;17.008;2023-03-01T17:34:25;82.00;;;37.30;;
76202;SDS011;64985;46.364;17.008;2023-03-01T17:37:28;86.18;;;36.90;;
76202;SDS011;64985;46.364;17.008;2023-03-01T17:40:30;85.18;;;38.95;;
76202;SDS011;64985;46.364;17.008;2023-03-01T17:43:33;82.40;;;37.53;;
76202;SDS011;64985;46.364;17.008;2023-03-01T17:46:37;88.28;;;37.53;;
76202;SDS011;64985;46.364;17.008;2023-03-01T17:49:40;96.60;;;44.03;;
76202;SDS011;64985;46.364;17.008;2023-03-01T17:52:42;104.28;;;46.85;;
76202;SDS011;64985;46.364;17.008;2023-03-01T17:55:46;114.88;;;52.58;;
76202;SDS011;64985;46.364;17.008;2023-03-01T17:58:56;107.85;;;51.33;;
76202;SDS011;64985;46.364;17.008;2023-03-01T18:01:58;91.05;;;43.95;;
76202;SDS011;64985;46.364;17.008;2023-03-01T18:05:02;93.18;;;45.20;;
76202;SDS011;64985;46.364;17.008;2023-03-01T18:08:05;86.38;;;40.55;;
76202;SDS011;64985;46.364;17.008;2023-03-01T18:11:08;91.38;;;40.90;;
76202;SDS011;64985;46.364;17.008;2023-03-01T18:14:10;100.38;;;45.38;;
76202;SDS011;64985;46.364;17.008;2023-03-01T18:17:13;112.38;;;53.75;;
76202;SDS011;64985;46.364;17.008;2023-03-01T18:20:17;92.72;;;40.50;;
76202;SDS011;64985;46.364;17.008;2023-03-01T18:23:20;108.93;;;52.15;;
76202;SDS011;64985;46.364;17.008;2023-03-01T18:26:22;98.93;;;47.28;;
76202;SDS011;64985;46.364;17.008;2023-03-01T18:29:25;96.00;;;44.85;;
76202;SDS011;64985;46.364;17.008;2023-03-01T18:32:30;93.20;;;42.40;;
76202;SDS011;64985;46.364;17.008;2023-03-01T18:35:36;102.38;;;46.03;;
76202;SDS011;64985;46.364;17.008;2023-03-01T18:38:40;90.35;;;42.15;;
76202;SDS011;64985;46.364;17.008;2023-03-01T18:41:43;88.18;;;39.58;;
76202;SDS011;64985;46.364;17.008;2023-03-01T18:44:46;82.82;;;38.92;;
76202;SDS011;64985;46.364;17.008;2023-03-01T18:47:49;78.30;;;39.08;;
76202;SDS011;64985;46.364;17.008;2023-03-01T18:50:52;83.95;;;38.47;;
76202;SDS011;64985;46.364;17.008;2023-03-01T18:53:57;76.78;;;36.65;;
76202;SDS011;64985;46.364;17.008;2023-03-01T18:57:00;85.15;;;39.72;;
76202;SDS011;64985;46.364;17.008;2023-03-01T19:00:03;77.47;;;38.20;;
76202;SDS011;64985;46.364;17.008;2023-03-01T19:03:08;80.82;;;39.60;;
76202;SDS011;64985;46.364;17.008;2023-03-01T19:06:11;82.32;;;38.55;;
76202;SDS011;64985;46.364;17.008;2023-03-01T19:09:14;74.90;;;37.10;;
76202;SDS011;64985;46.364;17.008;2023-03-01T19:12:17;70.60;;;34.45;;
76202;SDS011;64985;46.364;17.008;2023-03-01T19:15:21;77.82;;;38.00;;
76202;SDS011;64985;46.364;17.008;2023-03-01T19:18:24;70.22;;;33.70;;
76202;SDS011;64985;46.364;17.008;2023-03-01T19:21:28;76.28;;;37.80;;
76202;SDS011;64985;46.364;17.008;2023-03-01T19:24:33;84.57;;;38.50;;
76202;SDS011;64985;46.364;17.008;2023-03-01T19:27:36;86.18;;;39.60;;
76202;SDS011;64985;46.364;17.008;2023-03-01T19:30:40;92.90;;;41.00;;